createdAt,value
2017-08-04T00:00:45.565Z,25.65
2017-08-04T00:01:55.176Z,25.6
2017-08-04T00:03:05.106Z,25.69
2017-08-04T00:04:15.012Z,25.67
2017-08-04T00:05:24.914Z,25.65
2017-08-04T00:06:35.143Z,25.69
2017-08-04T00:07:44.439Z,25.67
2017-08-04T00:08:54.351Z,25.67
2017-08-04T00:10:04.580Z,25.61
2017-08-04T00:11:14.501Z,25.61
2017-08-04T00:12:24.415Z,25.67
2017-08-04T00:13:34.029Z,25.7
2017-08-04T00:14:43.954Z,25.65
2017-08-04T00:15:53.863Z,25.69
2017-08-04T00:17:04.102Z,25.67
2017-08-04T00:18:14.336Z,25.62
2017-08-04T00:19:24.554Z,25.58
2017-08-04T00:20:34.185Z,25.62
2017-08-04T00:21:44.102Z,25.62
2017-08-04T00:22:54.014Z,25.57
2017-08-04T00:24:03.933Z,25.61
2017-08-04T00:25:13.232Z,25.6
2017-08-04T00:26:22.524Z,25.46
2017-08-04T00:27:32.760Z,25.57
2017-08-04T00:28:42.709Z,25.58
2017-08-04T00:29:52.627Z,25.57
2017-08-04T00:31:02.851Z,25.6
2017-08-04T00:32:13.081Z,25.51
2017-08-04T00:33:23.311Z,25.5
2017-08-04T00:34:32.605Z,25.46
2017-08-04T00:35:42.839Z,25.47
2017-08-04T00:36:53.064Z,25.38
2017-08-04T00:38:03.308Z,25.39
2017-08-04T00:39:12.618Z,25.39
2017-08-04T00:40:22.574Z,25.38
2017-08-04T00:41:32.800Z,25.32
2017-08-04T00:42:42.426Z,25.36
2017-08-04T00:43:53.023Z,25.39
2017-08-04T00:45:02.634Z,25.38
2017-08-04T00:46:12.542Z,25.42
2017-08-04T00:47:22.767Z,25.42
2017-08-04T00:48:32.686Z,25.38
2017-08-04T00:49:42.300Z,25.43
2017-08-04T00:50:52.533Z,25.4
2017-08-04T00:52:02.444Z,25.38
2017-08-04T00:53:12.361Z,25.35
2017-08-04T00:54:21.989Z,25.47
2017-08-04T00:55:32.223Z,25.5
2017-08-04T00:56:42.441Z,25.52
2017-08-04T00:57:52.670Z,25.51
2017-08-04T00:59:02.267Z,25.55
2017-08-04T01:00:12.178Z,25.5
2017-08-04T01:01:21.216Z,25.46
2017-08-04T01:02:30.835Z,25.47
2017-08-04T01:03:40.461Z,25.52
2017-08-04T01:04:50.376Z,25.52
2017-08-04T01:06:00.316Z,25.52
2017-08-04T01:07:09.318Z,25.47
2017-08-04T01:08:19.540Z,25.47
2017-08-04T01:09:29.755Z,25.54
2017-08-04T01:10:39.681Z,25.47
2017-08-04T01:11:49.894Z,25.51
2017-08-04T01:12:59.802Z,25.52
2017-08-04T01:14:09.422Z,25.46
2017-08-04T01:15:19.352Z,25.46
2017-08-04T01:16:29.290Z,25.4
2017-08-04T01:17:39.217Z,25.46
2017-08-04T01:18:49.453Z,25.38
2017-08-04T01:19:59.664Z,25.47
2017-08-04T01:21:09.577Z,25.5
2017-08-04T01:22:19.194Z,25.39
2017-08-04T01:23:29.437Z,25.33
2017-08-04T01:24:39.360Z,25.38
2017-08-04T01:25:48.986Z,25.46
2017-08-04T01:26:58.584Z,25.43
2017-08-04T01:28:08.199Z,25.38
2017-08-04T01:29:17.809Z,25.46
2017-08-04T01:30:28.085Z,25.4
2017-08-04T01:31:38.301Z,25.32
2017-08-04T01:32:48.543Z,25.47
2017-08-04T01:33:58.690Z,25.38
2017-08-04T01:35:08.610Z,25.47
2017-08-04T01:36:18.859Z,25.5
2017-08-04T01:37:28.793Z,25.47
2017-08-04T01:38:38.406Z,25.47
2017-08-04T01:39:48.339Z,25.47
2017-08-04T01:40:58.267Z,25.45
2017-08-04T01:42:08.486Z,25.52
2017-08-04T01:43:18.405Z,25.45
2017-08-04T01:44:28.322Z,25.46
2017-08-04T01:45:38.557Z,25.47
2017-08-04T01:46:48.470Z,25.46
2017-08-04T01:47:58.072Z,25.51
2017-08-04T01:49:07.989Z,25.46
2017-08-04T01:50:17.900Z,25.47
2017-08-04T01:51:27.834Z,25.45
2017-08-04T01:52:37.741Z,25.46
2017-08-04T01:53:47.662Z,25.43
2017-08-04T01:54:57.904Z,25.45
2017-08-04T01:56:07.521Z,25.45
2017-08-04T01:57:17.440Z,25.33
2017-08-04T01:58:27.377Z,25.36
2017-08-04T01:59:37.592Z,25.4
2017-08-04T02:00:47.193Z,25.38
2017-08-04T02:01:57.431Z,25.4
2017-08-04T02:03:07.366Z,25.35
2017-08-04T02:04:16.983Z,25.4
2017-08-04T02:05:26.587Z,25.35
2017-08-04T02:06:36.506Z,25.4
2017-08-04T02:07:46.419Z,25.38
2017-08-04T02:08:56.367Z,25.35
2017-08-04T02:10:06.298Z,25.43
2017-08-04T02:11:16.216Z,25.38
2017-08-04T02:12:26.126Z,25.3
2017-08-04T02:13:36.376Z,25.3
2017-08-04T02:14:46.597Z,25.21
2017-08-04T02:15:56.819Z,25.24
2017-08-04T02:17:07.037Z,25.24
2017-08-04T02:18:16.952Z,25.21
2017-08-04T02:19:27.283Z,25.15
2017-08-04T02:20:37.736Z,25.13
2017-08-04T02:21:47.052Z,25.13
2017-08-04T02:22:56.666Z,25.09
2017-08-04T02:24:06.889Z,25.06
2017-08-04T02:25:16.865Z,24.96
2017-08-04T02:26:26.786Z,24.95
2017-08-04T02:27:37.017Z,24.91
2017-08-04T02:28:47.238Z,24.8
2017-08-04T02:29:56.853Z,24.85
2017-08-04T02:31:07.082Z,24.8
2017-08-04T02:32:17.323Z,24.83
2017-08-04T02:33:27.251Z,24.73
2017-08-04T02:34:37.172Z,24.77
2017-08-04T02:35:46.804Z,24.77
2017-08-04T02:36:56.744Z,24.73
2017-08-04T02:38:06.652Z,24.68
2017-08-04T02:39:16.870Z,24.67
2017-08-04T02:40:26.476Z,24.64
2017-08-04T02:41:36.397Z,24.64
2017-08-04T02:42:46.622Z,24.64
2017-08-04T02:43:56.544Z,24.58
2017-08-04T02:45:06.465Z,24.53
2017-08-04T02:46:16.082Z,24.57
2017-08-04T02:47:26.312Z,24.57
2017-08-04T02:48:36.236Z,24.52
2017-08-04T02:49:46.507Z,24.58
2017-08-04T02:50:56.737Z,24.55
2017-08-04T02:52:06.659Z,24.52
2017-08-04T02:53:16.898Z,24.5
2017-08-04T02:54:26.819Z,24.53
2017-08-04T02:55:37.052Z,24.46
2017-08-04T02:56:47.288Z,24.42
2017-08-04T02:57:57.227Z,24.5
2017-08-04T02:59:07.152Z,24.53
2017-08-04T03:00:17.080Z,24.52
2017-08-04T03:01:27.303Z,24.47
2017-08-04T03:02:37.222Z,24.5
2017-08-04T03:03:47.438Z,24.55
2017-08-04T03:04:57.047Z,24.5
2017-08-04T03:06:07.642Z,24.42
2017-08-04T03:07:16.969Z,24.53
2017-08-04T03:08:27.189Z,24.57
2017-08-04T03:09:37.103Z,24.39
2017-08-04T03:10:46.718Z,24.46
2017-08-04T03:11:56.947Z,24.31
2017-08-04T03:13:06.863Z,24.34
2017-08-04T03:14:16.791Z,24.43
2017-08-04T03:15:26.397Z,24.43
2017-08-04T03:16:36.311Z,24.43
2017-08-04T03:17:46.224Z,24.5
2017-08-04T03:18:56.139Z,24.55
2017-08-04T03:20:06.064Z,24.55
2017-08-04T03:21:15.671Z,24.6
2017-08-04T03:22:25.588Z,24.65
2017-08-04T03:23:35.497Z,24.67
2017-08-04T03:24:45.408Z,24.62
2017-08-04T03:25:55.633Z,24.73
2017-08-04T03:27:05.850Z,24.71
2017-08-04T03:28:16.078Z,24.73
2017-08-04T03:29:26.130Z,24.69
2017-08-04T03:30:36.363Z,24.68
2017-08-04T03:31:46.586Z,24.71
2017-08-04T03:32:56.222Z,24.68
2017-08-04T03:34:05.825Z,24.69
2017-08-04T03:35:14.841Z,24.69
2017-08-04T03:36:25.068Z,24.77
2017-08-04T03:37:34.990Z,24.77
2017-08-04T03:38:44.933Z,24.83
2017-08-04T03:39:54.850Z,24.85
2017-08-04T03:41:04.764Z,24.78
2017-08-04T03:42:14.363Z,24.83
2017-08-04T03:43:23.977Z,24.87
2017-08-04T03:44:33.893Z,24.8
2017-08-04T03:45:43.803Z,24.76
2017-08-04T03:46:53.713Z,24.71
2017-08-04T03:48:03.924Z,24.71
2017-08-04T03:49:13.539Z,24.76
2017-08-04T03:50:23.452Z,24.68
2017-08-04T03:51:33.369Z,24.77
2017-08-04T03:52:43.298Z,24.71
2017-08-04T03:53:53.515Z,24.65
2017-08-04T03:55:03.427Z,24.71
2017-08-04T03:56:13.347Z,24.73
2017-08-04T03:57:23.567Z,24.67
2017-08-04T03:58:33.480Z,24.69
2017-08-04T03:59:43.400Z,24.73
2017-08-04T04:00:53.317Z,24.77
2017-08-04T04:02:02.935Z,24.76
2017-08-04T04:03:12.846Z,24.87
2017-08-04T04:04:22.776Z,24.8
2017-08-04T04:05:32.697Z,24.8
2017-08-04T04:06:42.620Z,24.8
2017-08-04T04:07:52.233Z,24.8
2017-08-04T04:09:02.490Z,24.78
2017-08-04T04:10:12.420Z,24.77
2017-08-04T04:11:22.048Z,24.8
2017-08-04T04:12:31.962Z,24.73
2017-08-04T04:13:41.870Z,24.77
2017-08-04T04:14:51.787Z,24.78
2017-08-04T04:16:02.014Z,24.83
2017-08-04T04:17:11.924Z,24.81
2017-08-04T04:18:21.863Z,24.83
2017-08-04T04:19:32.091Z,24.71
2017-08-04T04:20:42.002Z,24.8
2017-08-04T04:21:51.932Z,24.76
2017-08-04T04:23:01.871Z,24.83
2017-08-04T04:24:11.808Z,24.83
2017-08-04T04:25:21.141Z,24.85
2017-08-04T04:26:31.372Z,24.78
2017-08-04T04:27:41.595Z,24.83
2017-08-04T04:28:51.934Z,24.77
2017-08-04T04:30:02.259Z,24.81
2017-08-04T04:31:12.167Z,24.78
2017-08-04T04:32:21.782Z,24.84
2017-08-04T04:33:31.440Z,24.73
2017-08-04T04:34:41.055Z,24.83
2017-08-04T04:35:51.277Z,24.8
2017-08-04T04:37:01.199Z,24.76
2017-08-04T04:38:11.416Z,24.87
2017-08-04T04:39:20.709Z,24.81
2017-08-04T04:40:30.980Z,24.83
2017-08-04T04:41:40.608Z,24.78
2017-08-04T04:42:50.830Z,24.68
2017-08-04T04:44:01.062Z,24.65
2017-08-04T04:45:10.678Z,24.77
2017-08-04T04:46:20.897Z,24.77
2017-08-04T04:47:30.511Z,24.78
2017-08-04T04:48:40.137Z,24.77
2017-08-04T04:49:50.398Z,24.78
2017-08-04T04:51:00.031Z,24.83
2017-08-04T04:52:10.252Z,24.81
2017-08-04T04:53:20.180Z,24.81
2017-08-04T04:54:29.510Z,24.77
2017-08-04T04:55:39.735Z,24.78
2017-08-04T04:56:49.655Z,24.83
2017-08-04T04:57:59.883Z,24.78
2017-08-04T04:59:09.490Z,24.78
2017-08-04T05:00:19.414Z,24.9
2017-08-04T05:01:29.630Z,24.88
2017-08-04T05:02:39.561Z,24.96
2017-08-04T05:03:49.166Z,25.03
2017-08-04T05:04:58.779Z,25.09
2017-08-04T05:06:08.701Z,25.17
2017-08-04T05:07:18.632Z,25.14
2017-08-04T05:08:28.898Z,25.25
2017-08-04T05:09:39.127Z,25.23
2017-08-04T05:10:49.053Z,25.28
2017-08-04T05:11:58.988Z,25.33
2017-08-04T05:13:08.925Z,25.32
2017-08-04T05:14:18.545Z,25.43
2017-08-04T05:15:28.808Z,25.33
2017-08-04T05:16:38.423Z,25.42
2017-08-04T05:17:48.663Z,25.5
2017-08-04T05:18:58.293Z,25.45
2017-08-04T05:20:07.621Z,25.52
2017-08-04T05:21:17.244Z,25.47
2017-08-04T05:22:26.855Z,25.57
2017-08-04T05:23:36.464Z,25.55
2017-08-04T05:24:46.393Z,25.64
2017-08-04T05:25:56.331Z,25.67
2017-08-04T05:27:06.263Z,25.62
2017-08-04T05:28:16.194Z,25.67
2017-08-04T05:29:26.409Z,25.65
2017-08-04T05:30:36.625Z,25.77
2017-08-04T05:31:45.921Z,25.76
2017-08-04T05:32:56.139Z,25.79
2017-08-04T05:34:06.363Z,25.88
2017-08-04T05:35:16.282Z,25.9
2017-08-04T05:36:26.495Z,25.85
2017-08-04T05:37:36.420Z,25.87
2017-08-04T05:38:46.640Z,25.91
2017-08-04T05:39:56.566Z,25.91
2017-08-04T05:41:06.179Z,25.95
2017-08-04T05:42:16.798Z,25.99
2017-08-04T05:43:27.054Z,25.99
2017-08-04T05:44:36.958Z,25.99
2017-08-04T05:45:47.207Z,25.94
2017-08-04T05:46:56.516Z,25.98
2017-08-04T05:48:06.457Z,25.95
2017-08-04T05:49:16.467Z,26.12
2017-08-04T05:50:26.068Z,25.99
2017-08-04T05:51:35.361Z,26.05
2017-08-04T05:52:45.584Z,26.05
2017-08-04T05:53:55.205Z,26.01
2017-08-04T05:55:04.810Z,26.02
2017-08-04T05:56:15.052Z,26.12
2017-08-04T05:57:24.660Z,25.97
2017-08-04T05:58:34.578Z,26.06
2017-08-04T05:59:44.800Z,25.92
2017-08-04T06:00:55.024Z,26.05
2017-08-04T06:02:04.646Z,25.92
2017-08-04T06:03:14.586Z,25.92
2017-08-04T06:04:24.537Z,25.95
2017-08-04T06:05:34.833Z,25.99
2017-08-04T06:06:45.052Z,25.95
2017-08-04T06:07:54.964Z,26.02
2017-08-04T06:09:04.947Z,26.01
2017-08-04T06:10:15.220Z,25.98
2017-08-04T06:11:25.230Z,26.05
2017-08-04T06:12:35.462Z,26.02
2017-08-04T06:13:45.798Z,26.15
2017-08-04T06:14:55.124Z,25.98
2017-08-04T06:16:05.048Z,25.98
2017-08-04T06:17:14.654Z,26.17
2017-08-04T06:18:24.563Z,26.15
2017-08-04T06:19:34.488Z,26.13
2017-08-04T06:20:44.422Z,26.13
2017-08-04T06:21:54.035Z,26.07
2017-08-04T06:23:04.276Z,26.1
2017-08-04T06:24:14.511Z,26.13
2017-08-04T06:25:24.742Z,26.12
2017-08-04T06:26:34.354Z,26.12
2017-08-04T06:27:44.279Z,26.1
2017-08-04T06:28:54.196Z,26.15
2017-08-04T06:30:04.438Z,26.1
2017-08-04T06:31:14.668Z,26.15
2017-08-04T06:32:24.918Z,26.12
2017-08-04T06:33:34.913Z,26.12
2017-08-04T06:34:44.842Z,26.12
2017-08-04T06:35:54.767Z,26.12
2017-08-04T06:37:04.680Z,26.13
2017-08-04T06:38:14.297Z,26.09
2017-08-04T06:39:24.535Z,26.21
2017-08-04T06:40:34.798Z,26.09
2017-08-04T06:41:45.014Z,26.18
2017-08-04T06:42:55.244Z,26.06
2017-08-04T06:44:05.477Z,26.07
2017-08-04T06:45:15.422Z,26.2
2017-08-04T06:46:25.050Z,26.25
2017-08-04T06:47:34.979Z,26.18
2017-08-04T06:48:45.204Z,26.2
2017-08-04T06:49:54.820Z,26.26
2017-08-04T06:51:04.430Z,26.2
2017-08-04T06:52:14.649Z,26.2
2017-08-04T06:53:24.571Z,26.29
2017-08-04T06:54:34.837Z,26.26
2017-08-04T06:55:44.759Z,26.3
2017-08-04T06:56:54.680Z,26.3
2017-08-04T06:58:03.694Z,26.3
2017-08-04T06:59:13.620Z,26.33
2017-08-04T07:00:23.540Z,26.33
2017-08-04T07:01:33.469Z,26.35
2017-08-04T07:02:43.714Z,26.32
2017-08-04T07:03:53.645Z,26.33
2017-08-04T07:05:03.577Z,26.25
2017-08-04T07:06:13.175Z,26.3
2017-08-04T07:07:22.479Z,26.35
2017-08-04T07:08:32.404Z,26.26
2017-08-04T07:09:42.050Z,26.29
2017-08-04T07:10:51.690Z,26.28
2017-08-04T07:12:00.997Z,26.3
2017-08-04T07:13:10.298Z,26.33
2017-08-04T07:14:20.232Z,26.35
2017-08-04T07:15:29.858Z,26.37
2017-08-04T07:16:39.767Z,26.36
2017-08-04T07:17:49.697Z,26.48
2017-08-04T07:18:58.995Z,26.5
2017-08-04T07:20:08.305Z,26.52
2017-08-04T07:21:17.703Z,26.57
2017-08-04T07:22:27.312Z,26.57
2017-08-04T07:23:37.215Z,26.54
2017-08-04T07:24:46.827Z,26.5
2017-08-04T07:25:56.742Z,26.54
2017-08-04T07:27:06.670Z,26.5
2017-08-04T07:28:16.015Z,26.51
2017-08-04T07:29:26.235Z,26.52
2017-08-04T07:30:36.469Z,26.54
2017-08-04T07:31:46.698Z,26.54
2017-08-04T07:32:56.933Z,26.6
2017-08-04T07:34:06.865Z,26.5
2017-08-04T07:35:16.175Z,26.51
2017-08-04T07:36:26.400Z,26.57
2017-08-04T07:37:36.650Z,26.6
2017-08-04T07:38:46.564Z,26.52
2017-08-04T07:39:56.797Z,26.57
2017-08-04T07:41:07.032Z,26.63
2017-08-04T07:42:16.948Z,26.54
2017-08-04T07:43:26.878Z,26.66
2017-08-04T07:44:36.795Z,26.65
2017-08-04T07:45:46.717Z,26.65
2017-08-04T07:46:56.641Z,26.65
2017-08-04T07:48:06.255Z,26.63
2017-08-04T07:49:15.241Z,26.65
2017-08-04T07:50:25.476Z,26.67
2017-08-04T07:51:35.695Z,26.66
2017-08-04T07:52:45.336Z,26.6
2017-08-04T07:53:55.563Z,26.66
2017-08-04T07:55:05.803Z,26.7
2017-08-04T07:56:15.717Z,26.87
2017-08-04T07:57:25.654Z,26.88
2017-08-04T07:58:35.271Z,26.84
2017-08-04T07:59:44.881Z,26.88
2017-08-04T08:00:55.098Z,26.92
2017-08-04T08:02:05.013Z,26.97
2017-08-04T08:03:14.630Z,27.03
2017-08-04T08:04:24.850Z,27.13
2017-08-04T08:05:34.753Z,27.21
2017-08-04T08:06:44.666Z,27.29
2017-08-04T08:07:54.909Z,27.32
2017-08-04T08:09:05.138Z,27.37
2017-08-04T08:10:15.057Z,27.43
2017-08-04T08:11:24.661Z,27.47
2017-08-04T08:12:34.293Z,27.6
2017-08-04T08:13:43.961Z,27.7
2017-08-04T08:14:54.201Z,27.72
2017-08-04T08:16:04.130Z,27.75
2017-08-04T08:17:14.051Z,27.84
2017-08-04T08:18:23.975Z,27.84
2017-08-04T08:19:33.595Z,28.02
2017-08-04T08:20:42.894Z,28.11
2017-08-04T08:21:53.219Z,28.12
2017-08-04T08:23:03.182Z,28.22
2017-08-04T08:24:13.142Z,28.33
2017-08-04T08:25:22.776Z,28.37
2017-08-04T08:26:32.744Z,28.43
2017-08-04T08:27:42.680Z,28.52
2017-08-04T08:28:52.917Z,28.44
2017-08-04T08:30:03.153Z,28.37
2017-08-04T08:31:13.400Z,28.33
2017-08-04T08:32:23.028Z,28.24
2017-08-04T08:33:33.263Z,28.19
2017-08-04T08:34:43.200Z,28.14
2017-08-04T08:35:53.114Z,28.09
2017-08-04T08:37:03.048Z,28.02
2017-08-04T08:38:12.977Z,28.12
2017-08-04T08:39:22.964Z,28.22
2017-08-04T08:40:32.901Z,28.48
2017-08-04T08:41:42.818Z,28.46
2017-08-04T08:42:52.449Z,28.58
2017-08-04T08:44:02.382Z,28.59
2017-08-04T08:45:12.323Z,28.73
2017-08-04T08:46:22.248Z,28.77
2017-08-04T08:47:32.173Z,28.8
2017-08-04T08:48:42.400Z,28.86
2017-08-04T08:49:52.341Z,28.95
2017-08-04T08:51:02.271Z,28.98
2017-08-04T08:52:12.510Z,29.18
2017-08-04T08:53:22.142Z,29.28
2017-08-04T08:54:31.744Z,29.36
2017-08-04T08:55:41.972Z,29.26
2017-08-04T08:56:51.280Z,29.26
2017-08-04T08:58:01.200Z,29.31
2017-08-04T08:59:11.425Z,29.57
2017-08-04T09:00:21.660Z,29.78
2017-08-04T09:01:31.582Z,29.94
2017-08-04T09:02:41.538Z,29.98
2017-08-04T09:03:51.171Z,29.95
2017-08-04T09:05:01.093Z,29.79
2017-08-04T09:06:10.704Z,29.68
2017-08-04T09:07:20.611Z,29.49
2017-08-04T09:08:30.831Z,29.41
2017-08-04T09:09:41.082Z,29.19
2017-08-04T09:10:51.307Z,28.93
2017-08-04T09:12:01.548Z,28.92
2017-08-04T09:13:11.166Z,28.81
2017-08-04T09:14:21.417Z,28.7
2017-08-04T09:15:31.332Z,28.7
2017-08-04T09:16:40.952Z,28.56
2017-08-04T09:17:51.183Z,28.46
2017-08-04T09:19:01.414Z,28.44
2017-08-04T09:20:11.333Z,28.3
2017-08-04T09:21:21.557Z,28.37
2017-08-04T09:22:31.786Z,28.31
2017-08-04T09:23:41.102Z,28.22
2017-08-04T09:24:50.701Z,28.19
2017-08-04T09:26:00.614Z,28.15
2017-08-04T09:27:11.253Z,28.09
2017-08-04T09:28:20.867Z,28.04
2017-08-04T09:29:31.111Z,27.99
2017-08-04T09:30:41.035Z,28.03
2017-08-04T09:31:50.957Z,28
2017-08-04T09:33:00.873Z,27.99
2017-08-04T09:34:10.193Z,27.92
2017-08-04T09:35:20.111Z,27.85
2017-08-04T09:36:29.734Z,27.9
2017-08-04T09:37:39.954Z,27.87
2017-08-04T09:38:49.585Z,27.82
2017-08-04T09:39:58.879Z,27.9
2017-08-04T09:41:08.811Z,27.81
2017-08-04T09:42:19.036Z,27.84
2017-08-04T09:43:28.958Z,27.72
2017-08-04T09:44:39.185Z,27.78
2017-08-04T09:45:49.104Z,27.75
2017-08-04T09:46:58.718Z,27.74
2017-08-04T09:48:08.631Z,27.66
2017-08-04T09:49:17.969Z,27.66
2017-08-04T09:50:27.577Z,27.6
2017-08-04T09:51:37.514Z,27.63
2017-08-04T09:52:47.352Z,27.63
2017-08-04T09:53:57.272Z,27.65
2017-08-04T09:55:07.203Z,27.5
2017-08-04T09:56:16.842Z,27.54
2017-08-04T09:57:27.068Z,27.51
2017-08-04T09:58:37.295Z,27.47
2017-08-04T09:59:47.556Z,27.47
2017-08-04T10:00:57.499Z,27.59
2017-08-04T10:02:07.116Z,27.4
2017-08-04T10:03:17.034Z,27.41
2017-08-04T10:04:26.985Z,27.4
2017-08-04T10:05:37.228Z,27.4
2017-08-04T10:06:46.840Z,27.36
2017-08-04T10:07:56.793Z,27.34
2017-08-04T10:09:06.707Z,27.32
2017-08-04T10:10:16.030Z,27.34
2017-08-04T10:11:26.280Z,27.34
2017-08-04T10:12:36.527Z,27.36
2017-08-04T10:13:46.455Z,27.37
2017-08-04T10:14:56.091Z,27.37
2017-08-04T10:16:06.016Z,27.21
2017-08-04T10:17:15.629Z,27.36
2017-08-04T10:18:25.254Z,27.25
2017-08-04T10:19:35.503Z,27.37
2017-08-04T10:20:45.439Z,27.34
2017-08-04T10:21:55.677Z,27.32
2017-08-04T10:23:05.649Z,27.31
2017-08-04T10:24:15.899Z,27.27
2017-08-04T10:25:26.173Z,27.37
2017-08-04T10:26:36.421Z,27.34
2017-08-04T10:27:46.395Z,27.29
2017-08-04T10:28:56.643Z,27.29
2017-08-04T10:30:06.625Z,27.29
2017-08-04T10:31:16.891Z,27.25
2017-08-04T10:32:26.850Z,27.27
2017-08-04T10:33:36.840Z,27.25
2017-08-04T10:34:46.478Z,27.25
2017-08-04T10:35:56.427Z,27.29
2017-08-04T10:37:06.372Z,27.21
2017-08-04T10:38:16.299Z,27.29
2017-08-04T10:39:26.917Z,27.19
2017-08-04T10:40:36.866Z,27.29
2017-08-04T10:41:46.833Z,27.27
2017-08-04T10:42:57.097Z,27.25
2017-08-04T10:44:06.712Z,27.25
2017-08-04T10:45:16.651Z,27.21
2017-08-04T10:46:26.595Z,27.22
2017-08-04T10:47:36.840Z,27.25
2017-08-04T10:48:46.810Z,27.32
2017-08-04T10:49:56.425Z,27.25
2017-08-04T10:51:06.683Z,27.19
2017-08-04T10:52:16.329Z,27.19
2017-08-04T10:53:26.543Z,27.24
2017-08-04T10:54:36.460Z,27.31
2017-08-04T10:55:45.770Z,27.28
2017-08-04T10:56:54.777Z,27.22
2017-08-04T10:58:04.740Z,27.27
2017-08-04T10:59:13.781Z,27.25
2017-08-04T11:00:24.026Z,27.22
2017-08-04T11:01:34.067Z,27.21
2017-08-04T11:02:43.708Z,27.22
2017-08-04T11:03:53.373Z,27.27
2017-08-04T11:05:03.310Z,27.24
2017-08-04T11:06:12.992Z,27.19
2017-08-04T11:07:22.935Z,27.28
2017-08-04T11:08:33.201Z,27.19
2017-08-04T11:09:43.184Z,27.24
2017-08-04T11:10:53.115Z,27.24
2017-08-04T11:12:02.754Z,27.18
2017-08-04T11:13:12.768Z,27.18
2017-08-04T11:14:23.027Z,27.24
2017-08-04T11:15:32.943Z,27.22
2017-08-04T11:16:42.883Z,27.13
2017-08-04T11:17:53.123Z,27.12
2017-08-04T11:19:03.360Z,27.18
2017-08-04T11:20:13.628Z,27.19
2017-08-04T11:21:23.277Z,27.12
2017-08-04T11:22:32.587Z,27.19
2017-08-04T11:23:42.536Z,27.18
2017-08-04T11:24:52.150Z,27.09
2017-08-04T11:26:02.068Z,27.09
2017-08-04T11:27:12.007Z,27.13
2017-08-04T11:28:21.670Z,27.14
2017-08-04T11:29:30.365Z,27.14
2017-08-04T11:30:39.670Z,27.09
2017-08-04T11:31:49.912Z,27.18
2017-08-04T11:33:00.139Z,27.12
2017-08-04T11:34:09.753Z,27.12
2017-08-04T11:35:19.372Z,27.17
2017-08-04T11:36:29.606Z,27.21
2017-08-04T11:37:39.519Z,27.13
2017-08-04T11:38:49.759Z,27.21
2017-08-04T11:40:00.022Z,27.22
2017-08-04T11:41:09.945Z,27.18
2017-08-04T11:42:19.562Z,27.25
2017-08-04T11:43:28.867Z,27.21
2017-08-04T11:44:38.181Z,27.17
2017-08-04T11:45:48.423Z,27.18
2017-08-04T11:46:57.743Z,27.21
2017-08-04T11:48:07.666Z,27.21
2017-08-04T11:49:17.634Z,27.18
2017-08-04T11:50:27.261Z,27.14
2017-08-04T11:51:37.508Z,27.21
2017-08-04T11:52:47.426Z,27.17
2017-08-04T11:53:57.073Z,27.18
2017-08-04T11:55:07.374Z,27.13
2017-08-04T11:56:17.304Z,27.17
2017-08-04T11:57:27.544Z,27.19
2017-08-04T11:58:36.845Z,27.22
2017-08-04T11:59:47.098Z,27.17
2017-08-04T12:00:56.726Z,27.1
2017-08-04T12:02:06.651Z,27.12
2017-08-04T12:03:16.271Z,27.22
2017-08-04T12:04:26.504Z,27.21
2017-08-04T12:05:36.415Z,27.18
2017-08-04T12:06:46.347Z,27.21
2017-08-04T12:07:56.623Z,27.25
2017-08-04T12:09:06.342Z,27.19
2017-08-04T12:10:16.619Z,27.25
2017-08-04T12:11:26.268Z,27.18
2017-08-04T12:12:36.226Z,27.24
2017-08-04T12:13:45.569Z,27.24
2017-08-04T12:14:55.838Z,27.24
2017-08-04T12:16:06.158Z,27.31
2017-08-04T12:17:15.885Z,27.22
2017-08-04T12:18:25.847Z,27.25
2017-08-04T12:19:35.811Z,27.18
2017-08-04T12:20:45.474Z,27.22
2017-08-04T12:21:55.466Z,27.25
2017-08-04T12:23:05.117Z,27.24
2017-08-04T12:24:14.756Z,27.21
2017-08-04T12:25:24.720Z,27.13
2017-08-04T12:26:34.647Z,27.14
2017-08-04T12:27:44.903Z,27.19
2017-08-04T12:28:55.144Z,27.12
2017-08-04T12:30:05.137Z,27.18
2017-08-04T12:31:15.409Z,27.12
2017-08-04T12:32:25.727Z,27.13
2017-08-04T12:33:35.715Z,27.14
2017-08-04T12:34:45.988Z,27.12
2017-08-04T12:35:56.468Z,27.13
2017-08-04T12:37:06.412Z,27.12
2017-08-04T12:38:16.078Z,27.18
2017-08-04T12:39:26.021Z,27.12
2017-08-04T12:40:36.310Z,27.21
2017-08-04T12:41:46.608Z,27.13
2017-08-04T12:42:56.870Z,27.13
2017-08-04T12:44:06.817Z,27.18
2017-08-04T12:45:16.742Z,27.14
2017-08-04T12:46:26.981Z,27.22
2017-08-04T12:47:36.938Z,27.21
2017-08-04T12:48:46.877Z,27.19
2017-08-04T12:49:57.126Z,27.17
2017-08-04T12:51:06.740Z,27.18
2017-08-04T12:52:16.662Z,27.19
2017-08-04T12:53:26.918Z,27.13
2017-08-04T12:54:36.880Z,27.24
2017-08-04T12:55:46.495Z,27.24
2017-08-04T12:56:56.747Z,27.18
2017-08-04T12:58:06.682Z,27.24
2017-08-04T12:59:16.918Z,27.24
2017-08-04T13:00:26.693Z,27.25
2017-08-04T13:01:36.659Z,27.18
2017-08-04T13:02:46.947Z,27.22
2017-08-04T13:03:57.214Z,27.22
2017-08-04T13:05:07.508Z,27.22
2017-08-04T13:06:17.724Z,27.18
2017-08-04T13:07:27.636Z,27.21
2017-08-04T13:08:37.854Z,27.13
2017-08-04T13:09:47.470Z,27.21
2017-08-04T13:10:57.393Z,27.22
2017-08-04T13:12:07.656Z,27.25
2017-08-04T13:13:17.276Z,27.14
2017-08-04T13:14:27.315Z,27.17
2017-08-04T13:15:37.239Z,27.19
2017-08-04T13:16:46.254Z,27.13
2017-08-04T13:17:56.494Z,27.18
2017-08-04T13:19:06.406Z,27.13
2017-08-04T13:20:16.048Z,27.14
2017-08-04T13:21:25.968Z,27.13
2017-08-04T13:22:36.194Z,27.18
2017-08-04T13:23:45.825Z,27.1
2017-08-04T13:24:55.457Z,27.17
2017-08-04T13:26:05.381Z,27.14
2017-08-04T13:27:14.677Z,27.06
2017-08-04T13:28:24.591Z,27.19
2017-08-04T13:29:34.817Z,27.13
2017-08-04T13:30:44.124Z,27.19
2017-08-04T13:31:53.441Z,27.17
2017-08-04T13:33:03.358Z,27.13
2017-08-04T13:34:13.288Z,27.21
2017-08-04T13:35:22.917Z,27.18
2017-08-04T13:36:32.530Z,27.12
2017-08-04T13:37:42.463Z,27.13
2017-08-04T13:38:52.372Z,27.12
2017-08-04T13:40:02.638Z,27.09
2017-08-04T13:41:12.558Z,27.13
2017-08-04T13:42:22.482Z,27.12
2017-08-04T13:43:32.404Z,27.1
2017-08-04T13:44:42.629Z,27.09
2017-08-04T13:45:52.543Z,27.14
2017-08-04T13:47:02.168Z,27.18
2017-08-04T13:48:12.076Z,27.13
2017-08-04T13:49:22.004Z,27.13
2017-08-04T13:50:32.232Z,27.19
2017-08-04T13:51:41.831Z,27.13
2017-08-04T13:52:51.763Z,27.18
2017-08-04T13:54:01.072Z,27.17
2017-08-04T13:55:11.025Z,27.18
2017-08-04T13:56:20.944Z,27.17
2017-08-04T13:57:30.868Z,27.1
2017-08-04T13:58:40.499Z,27.14
2017-08-04T13:59:50.135Z,27.18
2017-08-04T14:00:59.772Z,27.21
2017-08-04T14:02:09.702Z,27.18
2017-08-04T14:03:19.636Z,27.18
2017-08-04T14:04:29.562Z,27.18
2017-08-04T14:05:39.484Z,27.19
2017-08-04T14:06:49.093Z,27.18
2017-08-04T14:07:58.693Z,27.21
2017-08-04T14:09:08.633Z,27.18
2017-08-04T14:10:18.573Z,27.21
2017-08-04T14:11:28.498Z,27.14
2017-08-04T14:12:38.443Z,27.19
2017-08-04T14:13:48.366Z,27.21
2017-08-04T14:14:58.598Z,27.21
2017-08-04T14:16:08.257Z,27.12
2017-08-04T14:17:18.540Z,27.21
2017-08-04T14:18:28.194Z,27.18
2017-08-04T14:19:37.799Z,27.17
2017-08-04T14:20:47.776Z,27.18
2017-08-04T14:21:57.105Z,27.18
2017-08-04T14:23:07.022Z,27.19
2017-08-04T14:24:17.255Z,27.22
2017-08-04T14:25:27.479Z,27.18
2017-08-04T14:26:37.103Z,27.21
2017-08-04T14:27:47.023Z,27.18
2017-08-04T14:28:56.945Z,27.17
2017-08-04T14:30:07.201Z,27.21
2017-08-04T14:31:17.439Z,27.18
2017-08-04T14:32:27.660Z,27.14
2017-08-04T14:33:37.573Z,27.18
2017-08-04T14:34:47.489Z,27.17
2017-08-04T14:35:56.805Z,27.19
2017-08-04T14:37:06.758Z,27.17
2017-08-04T14:38:16.985Z,27.21
2017-08-04T14:39:26.302Z,27.18
2017-08-04T14:40:36.538Z,27.13
2017-08-04T14:41:46.155Z,27.18
2017-08-04T14:42:56.080Z,27.18
2017-08-04T14:44:05.699Z,27.19
2017-08-04T14:45:15.624Z,27.18
2017-08-04T14:46:24.949Z,27.13
2017-08-04T14:47:35.193Z,27.18
2017-08-04T14:48:45.425Z,27.19
2017-08-04T14:49:55.647Z,27.14
2017-08-04T14:51:04.650Z,27.13
2017-08-04T14:52:14.881Z,27.21
2017-08-04T14:53:24.790Z,27.18
2017-08-04T14:54:34.707Z,27.13
2017-08-04T14:55:44.614Z,27.18
2017-08-04T14:56:54.526Z,27.18
2017-08-04T14:58:04.170Z,27.1
2017-08-04T14:59:14.105Z,27.12
2017-08-04T15:00:23.743Z,27.13
2017-08-04T15:01:33.668Z,27.09
2017-08-04T15:02:43.591Z,27.12
2017-08-04T15:03:53.499Z,27.17